sensor_id;sensor_type;location;lat;lon;timestamp;temperature;humidity
4962;DHT22;2496;52.468;13.342;2023-11-21T00:01:31;8.90;99.90
4962;DHT22;2496;52.468;13.342;2023-11-21T00:04:00;8.90;99.90
4962;DHT22;2496;52.468;13.342;2023-11-21T00:06:28;8.90;99.90
4962;DHT22;2496;52.468;13.342;2023-11-21T00:08:55;8.80;99.90
4962;DHT22;2496;52.468;13.342;2023-11-21T00:11:22;8.80;99.90
4962;DHT22;2496;52.468;13.342;2023-11-21T00:13:50;8.70;99.90
4962;DHT22;2496;52.468;13.342;2023-11-21T00:16:18;8.50;99.90
4962;DHT22;2496;52.468;13.342;2023-11-21T00:18:44;8.50;99.90
4962;DHT22;2496;52.468;13.342;2023-11-21T00:21:13;8.50;99.90
4962;DHT22;2496;52.468;13.342;2023-11-21T00:23:40;8.40;99.90
4962;DHT22;2496;52.468;13.342;2023-11-21T00:26:07;8.30;99.90
4962;DHT22;2496;52.468;13.342;2023-11-21T00:28:34;8.20;99.90
4962;DHT22;2496;52.468;13.342;2023-11-21T00:31:01;8.10;99.90
4962;DHT22;2496;52.468;13.342;2023-11-21T00:33:29;8.20;99.90
4962;DHT22;2496;52.468;13.342;2023-11-21T00:35:56;8.20;99.90
4962;DHT22;2496;52.468;13.342;2023-11-21T00:38:24;8.20;99.90
4962;DHT22;2496;52.468;13.342;2023-11-21T00:40:52;8.20;99.90
4962;DHT22;2496;52.468;13.342;2023-11-21T00:43:21;8.10;99.90
4962;DHT22;2496;52.468;13.342;2023-11-21T00:45:48;7.90;99.90
4962;DHT22;2496;52.468;13.342;2023-11-21T00:48:15;7.90;99.90
4962;DHT22;2496;52.468;13.342;2023-11-21T00:50:42;7.90;99.90
4962;DHT22;2496;52.468;13.342;2023-11-21T00:53:09;7.80;99.90
4962;DHT22;2496;52.468;13.342;2023-11-21T00:55:37;7.70;99.90
4962;DHT22;2496;52.468;13.342;2023-11-21T00:58:05;7.70;99.90
4962;DHT22;2496;52.468;13.342;2023-11-21T01:00:32;7.70;99.90
4962;DHT22;2496;52.468;13.342;2023-11-21T01:03:00;7.60;99.90
4962;DHT22;2496;52.468;13.342;2023-11-21T01:05:27;7.60;99.90
4962;DHT22;2496;52.468;13.342;2023-11-21T01:07:55;7.60;99.90
4962;DHT22;2496;52.468;13.342;2023-11-21T01:10:22;7.50;99.90
4962;DHT22;2496;52.468;13.342;2023-11-21T01:12:51;7.50;99.90
4962;DHT22;2496;52.468;13.342;2023-11-21T01:15:18;7.40;99.90
4962;DHT22;2496;52.468;13.342;2023-11-21T01:17:45;7.40;99.90
4962;DHT22;2496;52.468;13.342;2023-11-21T01:20:12;7.40;99.90
4962;DHT22;2496;52.468;13.342;2023-11-21T01:22:39;7.40;99.90
4962;DHT22;2496;52.468;13.342;2023-11-21T01:25:07;7.30;99.90
4962;DHT22;2496;52.468;13.342;2023-11-21T01:27:34;7.40;99.90
4962;DHT22;2496;52.468;13.342;2023-11-21T01:30:03;7.30;99.90
4962;DHT22;2496;52.468;13.342;2023-11-21T01:32:33;7.30;99.90
4962;DHT22;2496;52.468;13.342;2023-11-21T01:35:00;7.20;99.90
4962;DHT22;2496;52.468;13.342;2023-11-21T01:37:27;7.20;99.90
4962;DHT22;2496;52.468;13.342;2023-11-21T01:39:54;7.10;99.90
4962;DHT22;2496;52.468;13.342;2023-11-21T01:42:21;7.10;99.90
4962;DHT22;2496;52.468;13.342;2023-11-21T01:44:48;7.00;99.90
4962;DHT22;2496;52.468;13.342;2023-11-21T01:47:16;6.90;99.90
4962;DHT22;2496;52.468;13.342;2023-11-21T01:49:44;6.90;99.90
4962;DHT22;2496;52.468;13.342;2023-11-21T01:52:12;6.90;99.90
4962;DHT22;2496;52.468;13.342;2023-11-21T01:54:41;6.90;99.90
4962;DHT22;2496;52.468;13.342;2023-11-21T01:57:08;6.90;99.90
4962;DHT22;2496;52.468;13.342;2023-11-21T01:59:36;6.90;99.90
4962;DHT22;2496;52.468;13.342;2023-11-21T02:02:04;6.90;99.90
4962;DHT22;2496;52.468;13.342;2023-11-21T02:04:33;6.90;99.90
4962;DHT22;2496;52.468;13.342;2023-11-21T02:07:00;6.90;99.90
4962;DHT22;2496;52.468;13.342;2023-11-21T02:09:28;6.90;99.90
4962;DHT22;2496;52.468;13.342;2023-11-21T02:11:55;7.00;99.90
4962;DHT22;2496;52.468;13.342;2023-11-21T02:14:24;6.90;99.90
4962;DHT22;2496;52.468;13.342;2023-11-21T02:16:52;6.90;99.90
4962;DHT22;2496;52.468;13.342;2023-11-21T02:19:20;6.90;99.90
4962;DHT22;2496;52.468;13.342;2023-11-21T02:21:51;6.80;99.90
4962;DHT22;2496;52.468;13.342;2023-11-21T02:24:20;6.80;99.90
4962;DHT22;2496;52.468;13.342;2023-11-21T02:26:47;6.90;99.90
4962;DHT22;2496;52.468;13.342;2023-11-21T02:29:15;6.90;99.90
4962;DHT22;2496;52.468;13.342;2023-11-21T02:31:45;6.80;99.90
4962;DHT22;2496;52.468;13.342;2023-11-21T02:34:14;6.80;99.90
4962;DHT22;2496;52.468;13.342;2023-11-21T02:36:41;6.70;99.90
4962;DHT22;2496;52.468;13.342;2023-11-21T02:39:09;6.70;99.90
4962;DHT22;2496;52.468;13.342;2023-11-21T02:41:37;6.60;99.90
4962;DHT22;2496;52.468;13.342;2023-11-21T02:44:06;6.60;99.90
4962;DHT22;2496;52.468;13.342;2023-11-21T02:46:33;6.60;99.90
4962;DHT22;2496;52.468;13.342;2023-11-21T02:49:01;6.60;99.90
4962;DHT22;2496;52.468;13.342;2023-11-21T02:51:29;6.60;99.90
4962;DHT22;2496;52.468;13.342;2023-11-21T02:53:56;6.60;99.90
4962;DHT22;2496;52.468;13.342;2023-11-21T02:56:24;6.60;99.90
4962;DHT22;2496;52.468;13.342;2023-11-21T02:58:55;6.50;99.90
4962;DHT22;2496;52.468;13.342;2023-11-21T03:01:23;6.60;99.90
4962;DHT22;2496;52.468;13.342;2023-11-21T03:03:50;6.60;99.90
4962;DHT22;2496;52.468;13.342;2023-11-21T03:06:18;6.60;99.90
4962;DHT22;2496;52.468;13.342;2023-11-21T03:08:45;6.60;99.90
4962;DHT22;2496;52.468;13.342;2023-11-21T03:11:12;6.60;99.90
4962;DHT22;2496;52.468;13.342;2023-11-21T03:13:39;6.60;99.90
4962;DHT22;2496;52.468;13.342;2023-11-21T03:16:08;6.60;99.90
4962;DHT22;2496;52.468;13.342;2023-11-21T03:18:35;6.60;99.90
4962;DHT22;2496;52.468;13.342;2023-11-21T03:21:03;6.60;99.90
4962;DHT22;2496;52.468;13.342;2023-11-21T03:23:31;6.60;99.90
4962;DHT22;2496;52.468;13.342;2023-11-21T03:25:58;6.60;99.90
4962;DHT22;2496;52.468;13.342;2023-11-21T03:28:25;6.60;99.90
4962;DHT22;2496;52.468;13.342;2023-11-21T03:30:52;6.60;99.90
4962;DHT22;2496;52.468;13.342;2023-11-21T03:33:20;6.50;99.90
4962;DHT22;2496;52.468;13.342;2023-11-21T03:35:47;6.60;99.90
4962;DHT22;2496;52.468;13.342;2023-11-21T03:38:14;6.50;99.90
4962;DHT22;2496;52.468;13.342;2023-11-21T03:40:41;6.50;99.90
4962;DHT22;2496;52.468;13.342;2023-11-21T03:43:08;6.50;99.90
4962;DHT22;2496;52.468;13.342;2023-11-21T03:45:35;6.40;99.90
4962;DHT22;2496;52.468;13.342;2023-11-21T03:48:02;6.50;99.90
4962;DHT22;2496;52.468;13.342;2023-11-21T03:50:31;6.40;99.90
4962;DHT22;2496;52.468;13.342;2023-11-21T03:52:58;6.50;99.90
4962;DHT22;2496;52.468;13.342;2023-11-21T03:55:24;6.40;99.90
4962;DHT22;2496;52.468;13.342;2023-11-21T03:57:51;6.40;99.90
4962;DHT22;2496;52.468;13.342;2023-11-21T04:00:19;6.30;99.90
4962;DHT22;2496;52.468;13.342;2023-11-21T04:02:46;6.20;99.90
4962;DHT22;2496;52.468;13.342;2023-11-21T04:05:13;6.20;99.90
4962;DHT22;2496;52.468;13.342;2023-11-21T04:07:41;6.20;99.90
4962;DHT22;2496;52.468;13.342;2023-11-21T04:10:09;6.20;99.90
4962;DHT22;2496;52.468;13.342;2023-11-21T04:12:38;6.20;99.90
4962;DHT22;2496;52.468;13.342;2023-11-21T04:15:06;6.10;99.90
4962;DHT22;2496;52.468;13.342;2023-11-21T04:17:34;6.10;99.90
4962;DHT22;2496;52.468;13.342;2023-11-21T04:20:02;6.10;99.90
4962;DHT22;2496;52.468;13.342;2023-11-21T04:22:29;6.10;99.90
4962;DHT22;2496;52.468;13.342;2023-11-21T04:24:57;6.10;99.90
4962;DHT22;2496;52.468;13.342;2023-11-21T04:27:24;6.10;99.90
4962;DHT22;2496;52.468;13.342;2023-11-21T04:29:51;6.10;99.90
4962;DHT22;2496;52.468;13.342;2023-11-21T04:32:18;6.10;99.90
4962;DHT22;2496;52.468;13.342;2023-11-21T04:34:45;6.10;99.90
4962;DHT22;2496;52.468;13.342;2023-11-21T04:37:12;6.00;99.90
4962;DHT22;2496;52.468;13.342;2023-11-21T04:39:39;6.00;99.90
4962;DHT22;2496;52.468;13.342;2023-11-21T04:42:07;5.90;99.90
4962;DHT22;2496;52.468;13.342;2023-11-21T04:44:34;6.00;99.90
4962;DHT22;2496;52.468;13.342;2023-11-21T04:47:01;6.00;99.90
4962;DHT22;2496;52.468;13.342;2023-11-21T04:49:30;5.90;99.90
4962;DHT22;2496;52.468;13.342;2023-11-21T04:51:57;5.90;99.90
4962;DHT22;2496;52.468;13.342;2023-11-21T04:54:24;6.00;99.90
4962;DHT22;2496;52.468;13.342;2023-11-21T04:56:50;6.00;99.90
4962;DHT22;2496;52.468;13.342;2023-11-21T04:59:19;6.00;99.90
4962;DHT22;2496;52.468;13.342;2023-11-21T05:01:46;6.00;99.90
4962;DHT22;2496;52.468;13.342;2023-11-21T05:04:13;6.00;99.90
4962;DHT22;2496;52.468;13.342;2023-11-21T05:06:40;6.00;99.90
4962;DHT22;2496;52.468;13.342;2023-11-21T05:09:07;6.00;99.90
4962;DHT22;2496;52.468;13.342;2023-11-21T05:11:37;6.00;99.90
4962;DHT22;2496;52.468;13.342;2023-11-21T05:14:06;6.00;99.90
4962;DHT22;2496;52.468;13.342;2023-11-21T05:16:35;5.90;99.90
4962;DHT22;2496;52.468;13.342;2023-11-21T05:19:03;5.90;99.90
4962;DHT22;2496;52.468;13.342;2023-11-21T05:21:31;5.90;99.90
4962;DHT22;2496;52.468;13.342;2023-11-21T05:23:58;5.90;99.90
4962;DHT22;2496;52.468;13.342;2023-11-21T05:26:25;5.90;99.90
4962;DHT22;2496;52.468;13.342;2023-11-21T05:28:52;5.90;99.90
4962;DHT22;2496;52.468;13.342;2023-11-21T05:31:19;6.00;99.90
4962;DHT22;2496;52.468;13.342;2023-11-21T05:33:47;5.90;99.90
4962;DHT22;2496;52.468;13.342;2023-11-21T05:36:14;5.90;99.90
4962;DHT22;2496;52.468;13.342;2023-11-21T05:38:41;5.90;99.90
4962;DHT22;2496;52.468;13.342;2023-11-21T05:41:08;5.90;99.90
4962;DHT22;2496;52.468;13.342;2023-11-21T05:43:38;5.90;99.90
4962;DHT22;2496;52.468;13.342;2023-11-21T05:46:06;5.90;99.90
4962;DHT22;2496;52.468;13.342;2023-11-21T05:48:34;5.90;99.90
4962;DHT22;2496;52.468;13.342;2023-11-21T05:51:04;5.80;99.90
4962;DHT22;2496;52.468;13.342;2023-11-21T05:53:31;5.80;99.90
4962;DHT22;2496;52.468;13.342;2023-11-21T05:55:58;5.80;99.90
4962;DHT22;2496;52.468;13.342;2023-11-21T05:58:25;5.80;99.90
4962;DHT22;2496;52.468;13.342;2023-11-21T06:00:52;5.70;99.90
4962;DHT22;2496;52.468;13.342;2023-11-21T06:03:19;5.70;99.90
4962;DHT22;2496;52.468;13.342;2023-11-21T06:05:46;5.70;99.90
4962;DHT22;2496;52.468;13.342;2023-11-21T06:08:15;5.70;99.90
4962;DHT22;2496;52.468;13.342;2023-11-21T06:10:43;5.70;99.90
4962;DHT22;2496;52.468;13.342;2023-11-21T06:13:10;5.60;99.90
4962;DHT22;2496;52.468;13.342;2023-11-21T06:15:37;5.60;99.90
4962;DHT22;2496;52.468;13.342;2023-11-21T06:18:04;5.60;99.90
4962;DHT22;2496;52.468;13.342;2023-11-21T06:20:35;5.60;99.90
4962;DHT22;2496;52.468;13.342;2023-11-21T06:23:03;5.60;99.90
4962;DHT22;2496;52.468;13.342;2023-11-21T06:25:32;5.50;99.90
4962;DHT22;2496;52.468;13.342;2023-11-21T06:28:02;5.50;99.90
4962;DHT22;2496;52.468;13.342;2023-11-21T06:30:29;5.50;99.90
4962;DHT22;2496;52.468;13.342;2023-11-21T06:32:56;5.50;99.90
4962;DHT22;2496;52.468;13.342;2023-11-21T06:35:23;5.60;99.90
4962;DHT22;2496;52.468;13.342;2023-11-21T06:37:50;5.60;99.90
4962;DHT22;2496;52.468;13.342;2023-11-21T06:40:18;5.60;99.90
4962;DHT22;2496;52.468;13.342;2023-11-21T06:42:46;5.60;99.90
4962;DHT22;2496;52.468;13.342;2023-11-21T06:45:12;5.50;99.90
4962;DHT22;2496;52.468;13.342;2023-11-21T06:47:40;5.50;99.90
4962;DHT22;2496;52.468;13.342;2023-11-21T06:52:35;5.50;99.90
4962;DHT22;2496;52.468;13.342;2023-11-21T06:55:02;5.60;99.90
4962;DHT22;2496;52.468;13.342;2023-11-21T06:57:30;5.50;99.90
4962;DHT22;2496;52.468;13.342;2023-11-21T06:59:59;5.50;99.90
4962;DHT22;2496;52.468;13.342;2023-11-21T07:02:26;5.40;99.90
4962;DHT22;2496;52.468;13.342;2023-11-21T07:04:54;5.50;99.90
4962;DHT22;2496;52.468;13.342;2023-11-21T07:07:21;5.50;99.90
4962;DHT22;2496;52.468;13.342;2023-11-21T07:09:48;5.50;99.90
4962;DHT22;2496;52.468;13.342;2023-11-21T07:12:15;5.40;99.90
4962;DHT22;2496;52.468;13.342;2023-11-21T07:14:42;5.40;99.90
4962;DHT22;2496;52.468;13.342;2023-11-21T07:17:11;5.50;99.90
4962;DHT22;2496;52.468;13.342;2023-11-21T07:19:39;5.40;99.90
4962;DHT22;2496;52.468;13.342;2023-11-21T07:22:07;5.50;99.90
4962;DHT22;2496;52.468;13.342;2023-11-21T07:24:34;5.50;99.90
4962;DHT22;2496;52.468;13.342;2023-11-21T07:27:02;5.50;99.90
4962;DHT22;2496;52.468;13.342;2023-11-21T07:29:30;5.60;99.90
4962;DHT22;2496;52.468;13.342;2023-11-21T07:31:58;5.50;99.90
4962;DHT22;2496;52.468;13.342;2023-11-21T07:34:27;5.40;99.90
4962;DHT22;2496;52.468;13.342;2023-11-21T07:36:54;5.40;99.90
4962;DHT22;2496;52.468;13.342;2023-11-21T07:39:21;5.40;99.90
4962;DHT22;2496;52.468;13.342;2023-11-21T07:41:48;5.40;99.90
4962;DHT22;2496;52.468;13.342;2023-11-21T07:44:16;5.30;99.90
4962;DHT22;2496;52.468;13.342;2023-11-21T07:46:43;5.40;99.90
4962;DHT22;2496;52.468;13.342;2023-11-21T07:49:10;5.40;99.90
4962;DHT22;2496;52.468;13.342;2023-11-21T07:51:41;5.40;99.90
4962;DHT22;2496;52.468;13.342;2023-11-21T07:54:09;5.30;99.90
4962;DHT22;2496;52.468;13.342;2023-11-21T07:56:36;5.40;99.90
4962;DHT22;2496;52.468;13.342;2023-11-21T07:59:03;5.40;99.90
4962;DHT22;2496;52.468;13.342;2023-11-21T08:01:31;5.50;99.90
4962;DHT22;2496;52.468;13.342;2023-11-21T08:03:58;5.50;99.90
4962;DHT22;2496;52.468;13.342;2023-11-21T08:06:29;5.50;99.90
4962;DHT22;2496;52.468;13.342;2023-11-21T08:08:57;5.60;99.90
4962;DHT22;2496;52.468;13.342;2023-11-21T08:11:25;5.50;99.90
4962;DHT22;2496;52.468;13.342;2023-11-21T08:13:54;5.50;99.90
4962;DHT22;2496;52.468;13.342;2023-11-21T08:16:22;5.50;99.90
4962;DHT22;2496;52.468;13.342;2023-11-21T08:18:49;5.50;99.90
4962;DHT22;2496;52.468;13.342;2023-11-21T08:21:16;5.50;99.90
4962;DHT22;2496;52.468;13.342;2023-11-21T08:23:44;5.50;99.90
4962;DHT22;2496;52.468;13.342;2023-11-21T08:26:16;5.50;99.90
4962;DHT22;2496;52.468;13.342;2023-11-21T08:28:43;5.50;99.90
4962;DHT22;2496;52.468;13.342;2023-11-21T08:31:10;5.60;99.90
4962;DHT22;2496;52.468;13.342;2023-11-21T08:33:37;5.50;99.90
4962;DHT22;2496;52.468;13.342;2023-11-21T08:36:07;5.50;99.90
4962;DHT22;2496;52.468;13.342;2023-11-21T08:38:35;5.50;99.90
4962;DHT22;2496;52.468;13.342;2023-11-21T08:41:04;5.50;99.90
4962;DHT22;2496;52.468;13.342;2023-11-21T08:43:34;5.50;99.90
4962;DHT22;2496;52.468;13.342;2023-11-21T08:46:01;5.40;99.90
4962;DHT22;2496;52.468;13.342;2023-11-21T08:48:28;5.40;99.90
4962;DHT22;2496;52.468;13.342;2023-11-21T08:50:55;5.30;99.90
4962;DHT22;2496;52.468;13.342;2023-11-21T08:53:23;5.40;99.90
4962;DHT22;2496;52.468;13.342;2023-11-21T08:55:51;5.40;99.90
4962;DHT22;2496;52.468;13.342;2023-11-21T08:58:19;5.40;99.90
4962;DHT22;2496;52.468;13.342;2023-11-21T09:00:48;5.40;99.90
4962;DHT22;2496;52.468;13.342;2023-11-21T09:03:15;5.50;99.90
4962;DHT22;2496;52.468;13.342;2023-11-21T09:05:42;5.50;99.90
4962;DHT22;2496;52.468;13.342;2023-11-21T09:08:10;5.50;99.90
4962;DHT22;2496;52.468;13.342;2023-11-21T09:10:37;5.60;99.90
4962;DHT22;2496;52.468;13.342;2023-11-21T09:13:05;5.60;99.90
4962;DHT22;2496;52.468;13.342;2023-11-21T09:15:34;5.60;99.90
4962;DHT22;2496;52.468;13.342;2023-11-21T09:18:03;5.50;99.90
4962;DHT22;2496;52.468;13.342;2023-11-21T09:20:30;5.40;99.90
4962;DHT22;2496;52.468;13.342;2023-11-21T09:22:57;5.50;99.90
4962;DHT22;2496;52.468;13.342;2023-11-21T09:25:24;5.40;99.90
4962;DHT22;2496;52.468;13.342;2023-11-21T09:27:51;5.50;99.90
4962;DHT22;2496;52.468;13.342;2023-11-21T09:30:19;5.50;99.90
4962;DHT22;2496;52.468;13.342;2023-11-21T09:32:46;5.50;99.90
4962;DHT22;2496;52.468;13.342;2023-11-21T09:35:14;5.40;99.90
4962;DHT22;2496;52.468;13.342;2023-11-21T09:37:43;5.40;99.90
4962;DHT22;2496;52.468;13.342;2023-11-21T09:40:12;5.40;99.90
4962;DHT22;2496;52.468;13.342;2023-11-21T09:42:49;5.40;99.90
4962;DHT22;2496;52.468;13.342;2023-11-21T09:45:25;5.40;99.90
4962;DHT22;2496;52.468;13.342;2023-11-21T09:47:52;5.50;99.90
4962;DHT22;2496;52.468;13.342;2023-11-21T09:50:23;5.40;99.90
4962;DHT22;2496;52.468;13.342;2023-11-21T09:52:57;5.40;99.90
4962;DHT22;2496;52.468;13.342;2023-11-21T09:55:27;5.40;99.90
4962;DHT22;2496;52.468;13.342;2023-11-21T09:57:56;5.50;99.90
4962;DHT22;2496;52.468;13.342;2023-11-21T10:00:24;5.40;99.90
4962;DHT22;2496;52.468;13.342;2023-11-21T10:02:53;5.50;99.90
4962;DHT22;2496;52.468;13.342;2023-11-21T10:05:22;5.40;99.90
4962;DHT22;2496;52.468;13.342;2023-11-21T10:07:50;5.40;99.90
4962;DHT22;2496;52.468;13.342;2023-11-21T10:10:19;5.40;99.90
4962;DHT22;2496;52.468;13.342;2023-11-21T10:12:50;5.40;99.90
4962;DHT22;2496;52.468;13.342;2023-11-21T10:15:21;5.40;99.90
4962;DHT22;2496;52.468;13.342;2023-11-21T10:17:49;5.40;99.90
4962;DHT22;2496;52.468;13.342;2023-11-21T10:20:19;5.40;99.90
4962;DHT22;2496;52.468;13.342;2023-11-21T10:22:49;5.40;99.90
4962;DHT22;2496;52.468;13.342;2023-11-21T10:25:16;5.40;99.90
4962;DHT22;2496;52.468;13.342;2023-11-21T10:27:47;5.30;99.90
4962;DHT22;2496;52.468;13.342;2023-11-21T10:30:17;5.40;99.90
4962;DHT22;2496;52.468;13.342;2023-11-21T10:32:44;5.40;99.90
4962;DHT22;2496;52.468;13.342;2023-11-21T10:35:12;5.40;99.90
4962;DHT22;2496;52.468;13.342;2023-11-21T10:37:40;5.30;99.90
4962;DHT22;2496;52.468;13.342;2023-11-21T10:40:09;5.20;99.90
4962;DHT22;2496;52.468;13.342;2023-11-21T10:42:37;5.20;99.90
4962;DHT22;2496;52.468;13.342;2023-11-21T10:45:05;5.30;99.90
4962;DHT22;2496;52.468;13.342;2023-11-21T10:47:38;5.30;99.90
4962;DHT22;2496;52.468;13.342;2023-11-21T10:50:05;5.30;99.90
4962;DHT22;2496;52.468;13.342;2023-11-21T10:52:36;5.30;99.90
4962;DHT22;2496;52.468;13.342;2023-11-21T10:55:16;5.30;99.90
4962;DHT22;2496;52.468;13.342;2023-11-21T10:57:45;5.20;99.90
4962;DHT22;2496;52.468;13.342;2023-11-21T11:00:15;5.20;99.90
4962;DHT22;2496;52.468;13.342;2023-11-21T11:02:45;5.10;99.90
4962;DHT22;2496;52.468;13.342;2023-11-21T11:05:15;5.00;99.90
4962;DHT22;2496;52.468;13.342;2023-11-21T11:07:44;5.10;99.90
4962;DHT22;2496;52.468;13.342;2023-11-21T11:10:14;5.10;99.90
4962;DHT22;2496;52.468;13.342;2023-11-21T11:12:41;5.10;99.90
4962;DHT22;2496;52.468;13.342;2023-11-21T11:15:08;5.10;99.90
4962;DHT22;2496;52.468;13.342;2023-11-21T11:17:37;5.10;99.90
4962;DHT22;2496;52.468;13.342;2023-11-21T11:20:07;5.00;99.90
4962;DHT22;2496;52.468;13.342;2023-11-21T11:22:41;5.00;99.90
4962;DHT22;2496;52.468;13.342;2023-11-21T11:25:29;5.00;99.90
4962;DHT22;2496;52.468;13.342;2023-11-21T11:28:03;5.00;99.90
4962;DHT22;2496;52.468;13.342;2023-11-21T11:30:44;4.90;99.90
4962;DHT22;2496;52.468;13.342;2023-11-21T11:33:23;4.90;99.90
4962;DHT22;2496;52.468;13.342;2023-11-21T11:35:56;4.90;99.90
4962;DHT22;2496;52.468;13.342;2023-11-21T11:38:27;4.80;99.90
4962;DHT22;2496;52.468;13.342;2023-11-21T11:41:02;4.70;99.90
4962;DHT22;2496;52.468;13.342;2023-11-21T11:43:29;4.70;99.90
4962;DHT22;2496;52.468;13.342;2023-11-21T11:45:59;4.60;99.90
4962;DHT22;2496;52.468;13.342;2023-11-21T11:48:29;4.60;99.90
4962;DHT22;2496;52.468;13.342;2023-11-21T11:51:04;4.60;99.90
4962;DHT22;2496;52.468;13.342;2023-11-21T11:53:35;4.60;99.90
4962;DHT22;2496;52.468;13.342;2023-11-21T11:56:23;4.60;99.90
4962;DHT22;2496;52.468;13.342;2023-11-21T11:58:53;4.60;99.90
4962;DHT22;2496;52.468;13.342;2023-11-21T12:01:20;4.60;99.90
4962;DHT22;2496;52.468;13.342;2023-11-21T12:04:27;4.50;99.90
4962;DHT22;2496;52.468;13.342;2023-11-21T12:07:00;4.60;99.90
4962;DHT22;2496;52.468;13.342;2023-11-21T12:09:30;4.60;99.90
4962;DHT22;2496;52.468;13.342;2023-11-21T12:12:00;4.60;99.90
4962;DHT22;2496;52.468;13.342;2023-11-21T12:14:27;4.60;99.90
4962;DHT22;2496;52.468;13.342;2023-11-21T12:16:54;4.60;99.90
4962;DHT22;2496;52.468;13.342;2023-11-21T12:19:21;4.60;99.90
4962;DHT22;2496;52.468;13.342;2023-11-21T12:21:50;4.60;99.90
4962;DHT22;2496;52.468;13.342;2023-11-21T12:24:17;4.60;99.90
4962;DHT22;2496;52.468;13.342;2023-11-21T12:26:44;4.60;99.90
4962;DHT22;2496;52.468;13.342;2023-11-21T12:29:13;4.60;99.90
4962;DHT22;2496;52.468;13.342;2023-11-21T12:31:42;4.60;99.90
4962;DHT22;2496;52.468;13.342;2023-11-21T12:34:10;4.60;99.90
4962;DHT22;2496;52.468;13.342;2023-11-21T12:36:37;4.60;99.90
4962;DHT22;2496;52.468;13.342;2023-11-21T12:39:05;4.70;99.90
4962;DHT22;2496;52.468;13.342;2023-11-21T12:41:35;4.70;99.90
4962;DHT22;2496;52.468;13.342;2023-11-21T12:44:02;4.70;99.90
4962;DHT22;2496;52.468;13.342;2023-11-21T12:46:30;4.60;99.90
4962;DHT22;2496;52.468;13.342;2023-11-21T12:49:00;4.60;99.90
4962;DHT22;2496;52.468;13.342;2023-11-21T12:51:27;4.70;99.90
4962;DHT22;2496;52.468;13.342;2023-11-21T12:53:55;4.60;99.90
4962;DHT22;2496;52.468;13.342;2023-11-21T12:56:24;4.60;99.90
4962;DHT22;2496;52.468;13.342;2023-11-21T12:58:54;4.50;99.90
4962;DHT22;2496;52.468;13.342;2023-11-21T13:01:25;4.50;99.90
4962;DHT22;2496;52.468;13.342;2023-11-21T13:03:57;4.50;99.90
4962;DHT22;2496;52.468;13.342;2023-11-21T13:06:25;4.50;99.90
4962;DHT22;2496;52.468;13.342;2023-11-21T13:08:54;4.60;99.90
4962;DHT22;2496;52.468;13.342;2023-11-21T13:11:22;4.60;99.90
4962;DHT22;2496;52.468;13.342;2023-11-21T13:13:52;4.60;99.90
4962;DHT22;2496;52.468;13.342;2023-11-21T13:16:20;4.70;99.90
4962;DHT22;2496;52.468;13.342;2023-11-21T13:18:47;4.70;99.90
4962;DHT22;2496;52.468;13.342;2023-11-21T13:21:16;4.70;99.90
4962;DHT22;2496;52.468;13.342;2023-11-21T13:23:43;4.60;99.90
4962;DHT22;2496;52.468;13.342;2023-11-21T13:26:12;4.60;99.90
4962;DHT22;2496;52.468;13.342;2023-11-21T13:28:40;4.60;99.90
4962;DHT22;2496;52.468;13.342;2023-11-21T13:31:11;4.60;99.90
4962;DHT22;2496;52.468;13.342;2023-11-21T13:33:51;4.60;99.90
4962;DHT22;2496;52.468;13.342;2023-11-21T13:36:23;4.60;99.90
4962;DHT22;2496;52.468;13.342;2023-11-21T13:38:51;4.60;99.90
4962;DHT22;2496;52.468;13.342;2023-11-21T13:41:19;4.60;99.90
4962;DHT22;2496;52.468;13.342;2023-11-21T13:43:53;4.50;99.90
4962;DHT22;2496;52.468;13.342;2023-11-21T13:46:29;4.50;99.90
4962;DHT22;2496;52.468;13.342;2023-11-21T13:49:02;4.40;99.90
4962;DHT22;2496;52.468;13.342;2023-11-21T13:51:36;4.40;99.90
4962;DHT22;2496;52.468;13.342;2023-11-21T13:54:10;4.40;99.90
4962;DHT22;2496;52.468;13.342;2023-11-21T13:56:37;4.40;99.90
4962;DHT22;2496;52.468;13.342;2023-11-21T13:59:05;4.30;99.90
4962;DHT22;2496;52.468;13.342;2023-11-21T14:01:42;4.30;99.90
4962;DHT22;2496;52.468;13.342;2023-11-21T14:04:20;4.30;99.90
4962;DHT22;2496;52.468;13.342;2023-11-21T14:07:03;4.20;99.90
4962;DHT22;2496;52.468;13.342;2023-11-21T14:09:46;4.20;99.90
4962;DHT22;2496;52.468;13.342;2023-11-21T14:12:15;4.10;99.90
4962;DHT22;2496;52.468;13.342;2023-11-21T14:14:42;4.10;99.90
4962;DHT22;2496;52.468;13.342;2023-11-21T14:17:10;4.10;99.90
4962;DHT22;2496;52.468;13.342;2023-11-21T14:19:37;4.10;99.90
4962;DHT22;2496;52.468;13.342;2023-11-21T14:22:10;4.10;99.90
4962;DHT22;2496;52.468;13.342;2023-11-21T14:24:37;4.00;99.90
4962;DHT22;2496;52.468;13.342;2023-11-21T14:27:09;4.00;99.90
4962;DHT22;2496;52.468;13.342;2023-11-21T14:29:36;3.90;99.90
4962;DHT22;2496;52.468;13.342;2023-11-21T14:32:05;3.90;99.90
4962;DHT22;2496;52.468;13.342;2023-11-21T14:34:33;3.90;99.90
4962;DHT22;2496;52.468;13.342;2023-11-21T14:37:00;3.90;99.90
4962;DHT22;2496;52.468;13.342;2023-11-21T14:39:30;3.90;99.90
4962;DHT22;2496;52.468;13.342;2023-11-21T14:42:03;3.90;99.90
4962;DHT22;2496;52.468;13.342;2023-11-21T14:44:33;3.90;99.90
4962;DHT22;2496;52.468;13.342;2023-11-21T14:47:04;3.90;99.90
4962;DHT22;2496;52.468;13.342;2023-11-21T14:49:40;3.90;99.90
4962;DHT22;2496;52.468;13.342;2023-11-21T14:52:18;3.80;99.90
4962;DHT22;2496;52.468;13.342;2023-11-21T14:55:00;3.80;99.90
4962;DHT22;2496;52.468;13.342;2023-11-21T14:57:47;3.70;99.90
4962;DHT22;2496;52.468;13.342;2023-11-21T15:00:16;3.80;99.90
4962;DHT22;2496;52.468;13.342;2023-11-21T15:03:11;3.80;99.90
4962;DHT22;2496;52.468;13.342;2023-11-21T15:06:03;3.80;99.90
4962;DHT22;2496;52.468;13.342;2023-11-21T15:08:44;3.70;99.90
4962;DHT22;2496;52.468;13.342;2023-11-21T15:11:11;3.70;99.90
4962;DHT22;2496;52.468;13.342;2023-11-21T15:13:40;3.60;99.90
4962;DHT22;2496;52.468;13.342;2023-11-21T15:16:08;3.60;99.90
4962;DHT22;2496;52.468;13.342;2023-11-21T15:18:39;3.60;99.90
4962;DHT22;2496;52.468;13.342;2023-11-21T15:21:07;3.50;99.90
4962;DHT22;2496;52.468;13.342;2023-11-21T15:23:37;3.50;99.90
4962;DHT22;2496;52.468;13.342;2023-11-21T15:26:04;3.50;99.90
4962;DHT22;2496;52.468;13.342;2023-11-21T15:28:34;3.50;99.90
4962;DHT22;2496;52.468;13.342;2023-11-21T15:31:01;3.50;99.90
4962;DHT22;2496;52.468;13.342;2023-11-21T15:33:29;3.50;99.90
4962;DHT22;2496;52.468;13.342;2023-11-21T15:35:58;3.40;99.90
4962;DHT22;2496;52.468;13.342;2023-11-21T15:38:25;3.40;99.90
4962;DHT22;2496;52.468;13.342;2023-11-21T15:40:52;3.40;99.90
4962;DHT22;2496;52.468;13.342;2023-11-21T15:43:23;3.40;99.90
4962;DHT22;2496;52.468;13.342;2023-11-21T15:45:52;3.40;99.90
4962;DHT22;2496;52.468;13.342;2023-11-21T15:48:21;3.40;99.90
4962;DHT22;2496;52.468;13.342;2023-11-21T15:50:47;3.40;99.90
4962;DHT22;2496;52.468;13.342;2023-11-21T15:53:18;3.30;99.90
4962;DHT22;2496;52.468;13.342;2023-11-21T15:55:45;3.30;99.90
4962;DHT22;2496;52.468;13.342;2023-11-21T15:58:13;3.40;99.90
4962;DHT22;2496;52.468;13.342;2023-11-21T16:00:40;3.30;99.90
4962;DHT22;2496;52.468;13.342;2023-11-21T16:03:07;3.30;99.90
4962;DHT22;2496;52.468;13.342;2023-11-21T16:05:35;3.30;99.90
4962;DHT22;2496;52.468;13.342;2023-11-21T16:08:02;3.40;99.90
4962;DHT22;2496;52.468;13.342;2023-11-21T16:10:30;3.30;99.90
4962;DHT22;2496;52.468;13.342;2023-11-21T16:12:58;3.30;99.90
4962;DHT22;2496;52.468;13.342;2023-11-21T16:15:24;3.30;99.90